sensor_id;sensor_type;location;lat;lon;timestamp;temperature;humidity
6764;DHT22;47432;48.760;9.178;2023-04-25T00:00:20;8.50;99.90
6764;DHT22;47432;48.760;9.178;2023-04-25T00:02:46;8.50;99.90
6764;DHT22;47432;48.760;9.178;2023-04-25T00:05:12;8.60;99.90
6764;DHT22;47432;48.760;9.178;2023-04-25T00:07:40;8.60;99.90
6764;DHT22;47432;48.760;9.178;2023-04-25T00:10:08;8.50;99.90
6764;DHT22;47432;48.760;9.178;2023-04-25T00:12:36;8.60;99.90
6764;DHT22;47432;48.760;9.178;2023-04-25T00:15:02;8.50;99.90
6764;DHT22;47432;48.760;9.178;2023-04-25T00:17:28;8.50;99.90
6764;DHT22;47432;48.760;9.178;2023-04-25T00:19:54;8.60;99.90
6764;DHT22;47432;48.760;9.178;2023-04-25T00:22:21;8.50;99.90
6764;DHT22;47432;48.760;9.178;2023-04-25T00:24:47;8.50;99.90
6764;DHT22;47432;48.760;9.178;2023-04-25T00:27:13;8.40;99.90
6764;DHT22;47432;48.760;9.178;2023-04-25T00:29:39;8.40;99.90
6764;DHT22;47432;48.760;9.178;2023-04-25T00:32:05;8.40;99.90
6764;DHT22;47432;48.760;9.178;2023-04-25T00:34:30;8.40;99.90
6764;DHT22;47432;48.760;9.178;2023-04-25T00:36:56;8.30;99.90
6764;DHT22;47432;48.760;9.178;2023-04-25T00:39:22;8.30;99.90
6764;DHT22;47432;48.760;9.178;2023-04-25T00:41:48;8.20;99.90
6764;DHT22;47432;48.760;9.178;2023-04-25T00:44:15;8.20;99.90
6764;DHT22;47432;48.760;9.178;2023-04-25T00:46:43;8.30;99.90
6764;DHT22;47432;48.760;9.178;2023-04-25T00:49:09;8.40;99.90
6764;DHT22;47432;48.760;9.178;2023-04-25T00:51:40;8.40;99.90
6764;DHT22;47432;48.760;9.178;2023-04-25T00:54:06;8.50;99.90
6764;DHT22;47432;48.760;9.178;2023-04-25T00:56:35;8.40;99.90
6764;DHT22;47432;48.760;9.178;2023-04-25T00:59:00;8.40;99.90
6764;DHT22;47432;48.760;9.178;2023-04-25T01:01:26;8.30;99.90
6764;DHT22;47432;48.760;9.178;2023-04-25T01:03:53;8.40;99.90
6764;DHT22;47432;48.760;9.178;2023-04-25T01:06:19;8.30;99.90
6764;DHT22;47432;48.760;9.178;2023-04-25T01:08:45;8.40;99.90
6764;DHT22;47432;48.760;9.178;2023-04-25T01:11:11;8.40;99.90
6764;DHT22;47432;48.760;9.178;2023-04-25T01:13:36;8.40;99.90
6764;DHT22;47432;48.760;9.178;2023-04-25T01:16:02;8.50;99.90
6764;DHT22;47432;48.760;9.178;2023-04-25T01:18:28;8.50;99.90
6764;DHT22;47432;48.760;9.178;2023-04-25T01:20:54;8.50;99.90
6764;DHT22;47432;48.760;9.178;2023-04-25T01:23:23;8.60;99.90
6764;DHT22;47432;48.760;9.178;2023-04-25T01:25:50;8.60;99.90
6764;DHT22;47432;48.760;9.178;2023-04-25T01:28:18;8.60;99.90
6764;DHT22;47432;48.760;9.178;2023-04-25T01:30:44;8.60;99.90
6764;DHT22;47432;48.760;9.178;2023-04-25T01:33:11;8.60;99.90
6764;DHT22;47432;48.760;9.178;2023-04-25T01:35:38;8.50;99.90
6764;DHT22;47432;48.760;9.178;2023-04-25T01:38:04;8.40;99.90
6764;DHT22;47432;48.760;9.178;2023-04-25T01:40:30;8.30;99.90
6764;DHT22;47432;48.760;9.178;2023-04-25T01:42:56;8.30;99.90
6764;DHT22;47432;48.760;9.178;2023-04-25T01:45:22;8.30;99.90
6764;DHT22;47432;48.760;9.178;2023-04-25T01:47:48;8.30;99.90
6764;DHT22;47432;48.760;9.178;2023-04-25T01:50:18;8.30;99.90
6764;DHT22;47432;48.760;9.178;2023-04-25T01:52:44;8.20;99.90
6764;DHT22;47432;48.760;9.178;2023-04-25T01:55:10;8.20;99.90
6764;DHT22;47432;48.760;9.178;2023-04-25T01:57:36;8.20;99.90
6764;DHT22;47432;48.760;9.178;2023-04-25T02:00:04;8.10;99.90
6764;DHT22;47432;48.760;9.178;2023-04-25T02:02:32;8.10;99.90
6764;DHT22;47432;48.760;9.178;2023-04-25T02:04:57;8.10;99.90
6764;DHT22;47432;48.760;9.178;2023-04-25T02:07:23;8.10;99.90
6764;DHT22;47432;48.760;9.178;2023-04-25T02:09:49;8.10;99.90
6764;DHT22;47432;48.760;9.178;2023-04-25T02:12:15;8.10;99.90
6764;DHT22;47432;48.760;9.178;2023-04-25T02:14:41;7.40;99.90
6764;DHT22;47432;48.760;9.178;2023-04-25T02:17:06;8.10;99.90
6764;DHT22;47432;48.760;9.178;2023-04-25T02:19:32;8.00;99.90
6764;DHT22;47432;48.760;9.178;2023-04-25T02:21:58;8.00;99.90
6764;DHT22;47432;48.760;9.178;2023-04-25T02:24:24;8.00;99.90
6764;DHT22;47432;48.760;9.178;2023-04-25T02:26:50;8.00;99.90
6764;DHT22;47432;48.760;9.178;2023-04-25T02:29:16;8.00;99.90
6764;DHT22;47432;48.760;9.178;2023-04-25T02:31:42;7.90;99.90
6764;DHT22;47432;48.760;9.178;2023-04-25T02:34:08;7.90;99.90
6764;DHT22;47432;48.760;9.178;2023-04-25T02:36:33;7.80;99.90
6764;DHT22;47432;48.760;9.178;2023-04-25T02:39:01;7.80;99.90
6764;DHT22;47432;48.760;9.178;2023-04-25T02:41:28;7.80;99.90
6764;DHT22;47432;48.760;9.178;2023-04-25T02:43:56;7.80;99.90
6764;DHT22;47432;48.760;9.178;2023-04-25T02:46:22;7.70;99.90
6764;DHT22;47432;48.760;9.178;2023-04-25T02:48:48;7.70;99.90
6764;DHT22;47432;48.760;9.178;2023-04-25T02:51:13;7.60;99.90
6764;DHT22;47432;48.760;9.178;2023-04-25T02:53:41;7.60;99.90
6764;DHT22;47432;48.760;9.178;2023-04-25T02:56:07;7.50;99.90
6764;DHT22;47432;48.760;9.178;2023-04-25T02:58:33;7.50;99.90
6764;DHT22;47432;48.760;9.178;2023-04-25T03:00:59;7.40;99.90
6764;DHT22;47432;48.760;9.178;2023-04-25T03:03:24;7.30;99.90
6764;DHT22;47432;48.760;9.178;2023-04-25T03:05:51;7.30;99.90
6764;DHT22;47432;48.760;9.178;2023-04-25T03:08:17;7.20;99.90
6764;DHT22;47432;48.760;9.178;2023-04-25T03:10:43;7.20;99.90
6764;DHT22;47432;48.760;9.178;2023-04-25T03:13:09;7.10;99.90
6764;DHT22;47432;48.760;9.178;2023-04-25T03:15:36;7.20;99.90
6764;DHT22;47432;48.760;9.178;2023-04-25T03:18:02;7.20;99.90
6764;DHT22;47432;48.760;9.178;2023-04-25T03:20:27;7.20;99.90
6764;DHT22;47432;48.760;9.178;2023-04-25T03:22:54;7.20;99.90
6764;DHT22;47432;48.760;9.178;2023-04-25T03:25:19;7.30;99.90
6764;DHT22;47432;48.760;9.178;2023-04-25T03:27:45;7.30;99.90
6764;DHT22;47432;48.760;9.178;2023-04-25T03:30:11;7.20;99.90
6764;DHT22;47432;48.760;9.178;2023-04-25T03:32:39;7.20;99.90
6764;DHT22;47432;48.760;9.178;2023-04-25T03:35:05;7.30;99.90
6764;DHT22;47432;48.760;9.178;2023-04-25T03:37:31;7.30;99.90
6764;DHT22;47432;48.760;9.178;2023-04-25T03:39:56;7.30;99.90
6764;DHT22;47432;48.760;9.178;2023-04-25T03:42:22;7.20;99.90
6764;DHT22;47432;48.760;9.178;2023-04-25T03:44:49;7.20;99.90
6764;DHT22;47432;48.760;9.178;2023-04-25T03:47:14;7.20;99.90
6764;DHT22;47432;48.760;9.178;2023-04-25T03:49:41;7.20;99.90
6764;DHT22;47432;48.760;9.178;2023-04-25T03:52:07;7.20;99.90
6764;DHT22;47432;48.760;9.178;2023-04-25T03:54:32;7.10;99.90
6764;DHT22;47432;48.760;9.178;2023-04-25T03:56:58;7.10;99.90
6764;DHT22;47432;48.760;9.178;2023-04-25T03:59:24;7.10;99.90
6764;DHT22;47432;48.760;9.178;2023-04-25T04:01:50;7.10;99.90
6764;DHT22;47432;48.760;9.178;2023-04-25T04:04:16;7.10;99.90
6764;DHT22;47432;48.760;9.178;2023-04-25T04:06:41;7.10;99.90
6764;DHT22;47432;48.760;9.178;2023-04-25T04:09:07;7.10;99.90
6764;DHT22;47432;48.760;9.178;2023-04-25T04:11:37;7.00;99.90
6764;DHT22;47432;48.760;9.178;2023-04-25T04:14:07;7.10;99.90
6764;DHT22;47432;48.760;9.178;2023-04-25T04:16:33;7.10;99.90
6764;DHT22;47432;48.760;9.178;2023-04-25T04:18:59;7.10;99.90
6764;DHT22;47432;48.760;9.178;2023-04-25T04:21:24;7.10;99.90
6764;DHT22;47432;48.760;9.178;2023-04-25T04:23:53;7.00;99.90
6764;DHT22;47432;48.760;9.178;2023-04-25T04:26:20;7.00;99.90
6764;DHT22;47432;48.760;9.178;2023-04-25T04:28:49;7.10;99.90
6764;DHT22;47432;48.760;9.178;2023-04-25T04:31:23;7.20;99.90
6764;DHT22;47432;48.760;9.178;2023-04-25T04:33:49;7.10;99.90
6764;DHT22;47432;48.760;9.178;2023-04-25T04:36:16;7.10;99.90
6764;DHT22;47432;48.760;9.178;2023-04-25T04:38:45;7.00;99.90
6764;DHT22;47432;48.760;9.178;2023-04-25T04:41:10;7.00;99.90
6764;DHT22;47432;48.760;9.178;2023-04-25T04:43:36;7.00;99.90
6764;DHT22;47432;48.760;9.178;2023-04-25T04:46:03;7.10;99.90
6764;DHT22;47432;48.760;9.178;2023-04-25T04:48:30;7.10;99.90
6764;DHT22;47432;48.760;9.178;2023-04-25T04:50:58;7.20;99.90
6764;DHT22;47432;48.760;9.178;2023-04-25T04:53:24;7.20;99.90
6764;DHT22;47432;48.760;9.178;2023-04-25T04:55:50;7.40;99.90
6764;DHT22;47432;48.760;9.178;2023-04-25T04:58:16;7.40;99.90
6764;DHT22;47432;48.760;9.178;2023-04-25T05:00:44;7.50;99.90
6764;DHT22;47432;48.760;9.178;2023-04-25T05:03:10;7.60;99.90
6764;DHT22;47432;48.760;9.178;2023-04-25T05:05:36;7.70;99.90
6764;DHT22;47432;48.760;9.178;2023-04-25T05:08:05;7.70;99.90
6764;DHT22;47432;48.760;9.178;2023-04-25T05:10:34;7.80;99.90
6764;DHT22;47432;48.760;9.178;2023-04-25T05:13:02;7.80;99.90
6764;DHT22;47432;48.760;9.178;2023-04-25T05:15:28;7.80;99.90
6764;DHT22;47432;48.760;9.178;2023-04-25T05:17:53;7.80;99.90
6764;DHT22;47432;48.760;9.178;2023-04-25T05:20:19;8.00;99.90
6764;DHT22;47432;48.760;9.178;2023-04-25T05:22:47;8.10;99.90
6764;DHT22;47432;48.760;9.178;2023-04-25T05:25:13;8.20;99.90
6764;DHT22;47432;48.760;9.178;2023-04-25T05:27:39;8.30;99.90
6764;DHT22;47432;48.760;9.178;2023-04-25T05:30:07;8.50;99.90
6764;DHT22;47432;48.760;9.178;2023-04-25T05:32:36;8.60;99.90
6764;DHT22;47432;48.760;9.178;2023-04-25T05:35:04;8.60;99.90
6764;DHT22;47432;48.760;9.178;2023-04-25T05:37:32;8.60;99.90
6764;DHT22;47432;48.760;9.178;2023-04-25T05:39:58;8.80;99.90
6764;DHT22;47432;48.760;9.178;2023-04-25T05:42:23;8.90;99.90
6764;DHT22;47432;48.760;9.178;2023-04-25T05:44:49;9.00;99.90
6764;DHT22;47432;48.760;9.178;2023-04-25T05:47:15;9.10;99.90
6764;DHT22;47432;48.760;9.178;2023-04-25T05:49:40;9.00;99.90
6764;DHT22;47432;48.760;9.178;2023-04-25T05:52:08;9.10;99.90
6764;DHT22;47432;48.760;9.178;2023-04-25T05:54:34;9.10;99.90
6764;DHT22;47432;48.760;9.178;2023-04-25T05:57:00;9.00;99.90
6764;DHT22;47432;48.760;9.178;2023-04-25T05:59:27;9.00;99.90
6764;DHT22;47432;48.760;9.178;2023-04-25T06:01:53;8.90;99.90
6764;DHT22;47432;48.760;9.178;2023-04-25T06:04:22;8.80;99.90
6764;DHT22;47432;48.760;9.178;2023-04-25T06:06:48;8.60;99.90
6764;DHT22;47432;48.760;9.178;2023-04-25T06:09:14;8.60;99.90
6764;DHT22;47432;48.760;9.178;2023-04-25T06:11:39;8.60;99.90
6764;DHT22;47432;48.760;9.178;2023-04-25T06:14:06;8.50;99.90
6764;DHT22;47432;48.760;9.178;2023-04-25T06:16:32;8.60;99.90
6764;DHT22;47432;48.760;9.178;2023-04-25T06:18:58;8.50;99.90
6764;DHT22;47432;48.760;9.178;2023-04-25T06:21:24;8.70;99.90
6764;DHT22;47432;48.760;9.178;2023-04-25T06:23:49;8.70;99.90
6764;DHT22;47432;48.760;9.178;2023-04-25T06:26:15;8.80;99.90
6764;DHT22;47432;48.760;9.178;2023-04-25T06:28:41;8.80;99.90
6764;DHT22;47432;48.760;9.178;2023-04-25T06:31:06;8.90;99.90
6764;DHT22;47432;48.760;9.178;2023-04-25T06:33:32;9.10;99.90
6764;DHT22;47432;48.760;9.178;2023-04-25T06:35:58;9.10;99.90
6764;DHT22;47432;48.760;9.178;2023-04-25T06:38:24;9.10;99.90
6764;DHT22;47432;48.760;9.178;2023-04-25T06:40:49;9.30;99.90
6764;DHT22;47432;48.760;9.178;2023-04-25T06:43:15;9.30;99.90
6764;DHT22;47432;48.760;9.178;2023-04-25T06:45:41;9.30;99.90
6764;DHT22;47432;48.760;9.178;2023-04-25T06:48:10;9.30;99.90
6764;DHT22;47432;48.760;9.178;2023-04-25T06:50:36;9.20;99.90
6764;DHT22;47432;48.760;9.178;2023-04-25T06:53:01;9.00;99.90
6764;DHT22;47432;48.760;9.178;2023-04-25T06:55:27;8.90;99.90
6764;DHT22;47432;48.760;9.178;2023-04-25T06:57:53;8.90;99.90
6764;DHT22;47432;48.760;9.178;2023-04-25T07:00:19;8.80;99.90
6764;DHT22;47432;48.760;9.178;2023-04-25T07:05:13;8.80;99.90
6764;DHT22;47432;48.760;9.178;2023-04-25T07:17:24;8.80;99.90
6764;DHT22;47432;48.760;9.178;2023-04-25T07:19:50;8.80;99.90
6764;DHT22;47432;48.760;9.178;2023-04-25T07:22:15;8.80;99.90
6764;DHT22;47432;48.760;9.178;2023-04-25T07:24:41;8.70;99.90
6764;DHT22;47432;48.760;9.178;2023-04-25T07:27:09;8.70;99.90
6764;DHT22;47432;48.760;9.178;2023-04-25T07:29:35;8.70;99.90
6764;DHT22;47432;48.760;9.178;2023-04-25T07:32:02;8.70;99.90
6764;DHT22;47432;48.760;9.178;2023-04-25T07:34:28;8.70;99.90
6764;DHT22;47432;48.760;9.178;2023-04-25T07:39:21;8.70;99.90
6764;DHT22;47432;48.760;9.178;2023-04-25T07:44:14;8.70;99.90
6764;DHT22;47432;48.760;9.178;2023-04-25T07:49:06;8.60;99.90
6764;DHT22;47432;48.760;9.178;2023-04-25T07:51:32;8.50;99.90
6764;DHT22;47432;48.760;9.178;2023-04-25T07:58:51;8.50;99.90
6764;DHT22;47432;48.760;9.178;2023-04-25T08:01:16;8.40;99.90
6764;DHT22;47432;48.760;9.178;2023-04-25T08:03:42;8.40;99.90
6764;DHT22;47432;48.760;9.178;2023-04-25T08:06:08;8.40;99.90
6764;DHT22;47432;48.760;9.178;2023-04-25T08:11:00;8.40;99.90
6764;DHT22;47432;48.760;9.178;2023-04-25T08:13:26;8.40;99.90
6764;DHT22;47432;48.760;9.178;2023-04-25T08:15:51;8.50;99.90
6764;DHT22;47432;48.760;9.178;2023-04-25T08:18:18;8.50;99.90
6764;DHT22;47432;48.760;9.178;2023-04-25T08:20:43;8.50;99.90
6764;DHT22;47432;48.760;9.178;2023-04-25T08:23:10;8.60;99.90
6764;DHT22;47432;48.760;9.178;2023-04-25T08:25:36;8.60;99.90
6764;DHT22;47432;48.760;9.178;2023-04-25T08:28:01;8.60;99.90
6764;DHT22;47432;48.760;9.178;2023-04-25T08:30:28;8.60;99.90
6764;DHT22;47432;48.760;9.178;2023-04-25T08:32:54;8.50;99.90
6764;DHT22;47432;48.760;9.178;2023-04-25T08:35:20;8.60;99.90
6764;DHT22;47432;48.760;9.178;2023-04-25T08:40:15;8.80;99.90
6764;DHT22;47432;48.760;9.178;2023-04-25T08:42:44;8.80;99.90
6764;DHT22;47432;48.760;9.178;2023-04-25T08:45:11;8.90;99.90
6764;DHT22;47432;48.760;9.178;2023-04-25T08:47:38;8.90;99.90
6764;DHT22;47432;48.760;9.178;2023-04-25T08:50:05;8.80;99.90
6764;DHT22;47432;48.760;9.178;2023-04-25T08:52:36;8.90;99.90
6764;DHT22;47432;48.760;9.178;2023-04-25T08:55:05;9.00;99.90
6764;DHT22;47432;48.760;9.178;2023-04-25T08:57:33;9.00;99.90
6764;DHT22;47432;48.760;9.178;2023-04-25T09:00:01;9.00;99.90
6764;DHT22;47432;48.760;9.178;2023-04-25T09:02:27;9.00;99.90
6764;DHT22;47432;48.760;9.178;2023-04-25T09:04:54;8.80;99.90
6764;DHT22;47432;48.760;9.178;2023-04-25T09:09:47;8.70;99.90
6764;DHT22;47432;48.760;9.178;2023-04-25T09:12:13;8.80;99.90
6764;DHT22;47432;48.760;9.178;2023-04-25T09:14:39;8.70;99.90
6764;DHT22;47432;48.760;9.178;2023-04-25T09:17:05;8.60;99.90
6764;DHT22;47432;48.760;9.178;2023-04-25T09:19:34;8.60;99.90
6764;DHT22;47432;48.760;9.178;2023-04-25T09:22:03;8.60;99.90
6764;DHT22;47432;48.760;9.178;2023-04-25T09:24:40;8.80;99.90
6764;DHT22;47432;48.760;9.178;2023-04-25T09:27:10;8.70;99.90
6764;DHT22;47432;48.760;9.178;2023-04-25T09:29:40;8.70;99.90
6764;DHT22;47432;48.760;9.178;2023-04-25T09:32:19;8.70;99.90
6764;DHT22;47432;48.760;9.178;2023-04-25T09:34:51;8.70;99.90
6764;DHT22;47432;48.760;9.178;2023-04-25T09:37:30;8.70;99.90
6764;DHT22;47432;48.760;9.178;2023-04-25T09:39:57;8.70;99.90
6764;DHT22;47432;48.760;9.178;2023-04-25T09:42:27;8.70;99.90
6764;DHT22;47432;48.760;9.178;2023-04-25T09:44:55;8.80;99.90
6764;DHT22;47432;48.760;9.178;2023-04-25T09:47:23;8.80;99.90
6764;DHT22;47432;48.760;9.178;2023-04-25T09:49:51;8.80;99.90
6764;DHT22;47432;48.760;9.178;2023-04-25T09:52:19;8.80;99.90
6764;DHT22;47432;48.760;9.178;2023-04-25T09:54:48;8.80;99.90
6764;DHT22;47432;48.760;9.178;2023-04-25T09:57:18;8.80;99.90
6764;DHT22;47432;48.760;9.178;2023-04-25T09:59:53;8.80;99.90
6764;DHT22;47432;48.760;9.178;2023-04-25T10:02:28;8.70;99.90
6764;DHT22;47432;48.760;9.178;2023-04-25T10:04:55;8.60;99.90
6764;DHT22;47432;48.760;9.178;2023-04-25T10:07:30;8.50;99.90
6764;DHT22;47432;48.760;9.178;2023-04-25T10:10:05;8.50;99.90
6764;DHT22;47432;48.760;9.178;2023-04-25T10:12:33;8.40;99.90
6764;DHT22;47432;48.760;9.178;2023-04-25T10:15:00;8.20;99.90
6764;DHT22;47432;48.760;9.178;2023-04-25T10:17:28;8.40;99.90
6764;DHT22;47432;48.760;9.178;2023-04-25T10:19:54;8.30;99.90
6764;DHT22;47432;48.760;9.178;2023-04-25T10:22:29;8.20;99.90
6764;DHT22;47432;48.760;9.178;2023-04-25T10:24:58;8.20;99.90
6764;DHT22;47432;48.760;9.178;2023-04-25T10:27:27;8.30;99.90
6764;DHT22;47432;48.760;9.178;2023-04-25T10:30:10;8.30;99.90
6764;DHT22;47432;48.760;9.178;2023-04-25T10:32:41;8.20;99.90
6764;DHT22;47432;48.760;9.178;2023-04-25T10:37:59;8.10;99.90
6764;DHT22;47432;48.760;9.178;2023-04-25T10:40:28;8.10;99.90
6764;DHT22;47432;48.760;9.178;2023-04-25T10:42:54;8.00;99.90
6764;DHT22;47432;48.760;9.178;2023-04-25T10:45:21;8.00;99.90
6764;DHT22;47432;48.760;9.178;2023-04-25T10:47:50;7.90;99.90
6764;DHT22;47432;48.760;9.178;2023-04-25T10:50:15;8.00;99.90
6764;DHT22;47432;48.760;9.178;2023-04-25T10:52:44;8.00;99.90
6764;DHT22;47432;48.760;9.178;2023-04-25T10:55:10;7.90;99.90
6764;DHT22;47432;48.760;9.178;2023-04-25T10:57:40;7.80;99.90
6764;DHT22;47432;48.760;9.178;2023-04-25T11:00:20;7.60;99.90
6764;DHT22;47432;48.760;9.178;2023-04-25T11:02:55;7.50;99.90
6764;DHT22;47432;48.760;9.178;2023-04-25T11:05:34;7.40;99.90
6764;DHT22;47432;48.760;9.178;2023-04-25T11:08:10;7.30;99.90
6764;DHT22;47432;48.760;9.178;2023-04-25T11:10:36;7.20;99.90
6764;DHT22;47432;48.760;9.178;2023-04-25T11:13:03;7.20;99.90
6764;DHT22;47432;48.760;9.178;2023-04-25T11:15:28;7.40;99.90
6764;DHT22;47432;48.760;9.178;2023-04-25T11:20:22;7.70;99.90
6764;DHT22;47432;48.760;9.178;2023-04-25T11:27:53;8.00;99.90
6764;DHT22;47432;48.760;9.178;2023-04-25T11:30:22;8.00;99.90
6764;DHT22;47432;48.760;9.178;2023-04-25T11:37:43;8.10;99.90
6764;DHT22;47432;48.760;9.178;2023-04-25T11:40:10;8.20;99.90
6764;DHT22;47432;48.760;9.178;2023-04-25T11:42:37;8.30;99.90
6764;DHT22;47432;48.760;9.178;2023-04-25T11:45:05;8.30;99.90
6764;DHT22;47432;48.760;9.178;2023-04-25T11:47:32;8.50;99.90
6764;DHT22;47432;48.760;9.178;2023-04-25T11:49:59;8.60;99.90
6764;DHT22;47432;48.760;9.178;2023-04-25T11:52:56;8.60;99.90
6764;DHT22;47432;48.760;9.178;2023-04-25T11:55:22;8.80;99.90
6764;DHT22;47432;48.760;9.178;2023-04-25T11:57:49;8.80;99.90
6764;DHT22;47432;48.760;9.178;2023-04-25T12:00:20;8.70;99.90
6764;DHT22;47432;48.760;9.178;2023-04-25T12:02:50;8.70;99.90
6764;DHT22;47432;48.760;9.178;2023-04-25T12:10:11;8.90;99.90
6764;DHT22;47432;48.760;9.178;2023-04-25T12:12:42;9.00;99.90
6764;DHT22;47432;48.760;9.178;2023-04-25T12:15:22;9.00;99.90
6764;DHT22;47432;48.760;9.178;2023-04-25T12:17:51;8.90;99.90
6764;DHT22;47432;48.760;9.178;2023-04-25T12:20:19;8.80;99.90
6764;DHT22;47432;48.760;9.178;2023-04-25T12:22:49;8.80;99.90
6764;DHT22;47432;48.760;9.178;2023-04-25T12:28:13;8.70;99.90
6764;DHT22;47432;48.760;9.178;2023-04-25T12:31:05;8.70;99.90
6764;DHT22;47432;48.760;9.178;2023-04-25T12:33:33;8.80;99.90
6764;DHT22;47432;48.760;9.178;2023-04-25T12:36:00;9.20;99.90
6764;DHT22;47432;48.760;9.178;2023-04-25T12:38:38;9.30;99.90
6764;DHT22;47432;48.760;9.178;2023-04-25T12:41:09;9.50;99.90
6764;DHT22;47432;48.760;9.178;2023-04-25T12:43:35;9.70;99.90
6764;DHT22;47432;48.760;9.178;2023-04-25T12:46:03;10.10;99.90
6764;DHT22;47432;48.760;9.178;2023-04-25T12:48:29;10.40;99.90
6764;DHT22;47432;48.760;9.178;2023-04-25T12:53:23;11.00;99.90
6764;DHT22;47432;48.760;9.178;2023-04-25T12:55:49;11.40;99.90
6764;DHT22;47432;48.760;9.178;2023-04-25T12:58:17;12.00;99.90
6764;DHT22;47432;48.760;9.178;2023-04-25T13:00:43;12.30;99.90
6764;DHT22;47432;48.760;9.178;2023-04-25T13:03:10;12.30;99.90
6764;DHT22;47432;48.760;9.178;2023-04-25T13:05:39;12.70;99.90
6764;DHT22;47432;48.760;9.178;2023-04-25T13:08:07;12.90;99.90
6764;DHT22;47432;48.760;9.178;2023-04-25T13:10:33;13.20;99.90
6764;DHT22;47432;48.760;9.178;2023-04-25T13:13:01;13.40;99.90
6764;DHT22;47432;48.760;9.178;2023-04-25T13:15:27;13.80;99.90
6764;DHT22;47432;48.760;9.178;2023-04-25T13:17:53;13.90;99.90
6764;DHT22;47432;48.760;9.178;2023-04-25T13:20:19;13.80;99.90
6764;DHT22;47432;48.760;9.178;2023-04-25T13:22:47;13.80;99.90
6764;DHT22;47432;48.760;9.178;2023-04-25T13:25:13;13.80;99.90
6764;DHT22;47432;48.760;9.178;2023-04-25T13:27:39;13.00;99.90
6764;DHT22;47432;48.760;9.178;2023-04-25T13:30:06;13.00;99.90
6764;DHT22;47432;48.760;9.178;2023-04-25T13:32:37;12.70;99.90
6764;DHT22;47432;48.760;9.178;2023-04-25T13:35:08;11.80;99.90
6764;DHT22;47432;48.760;9.178;2023-04-25T13:37:36;12.10;99.90
6764;DHT22;47432;48.760;9.178;2023-04-25T13:40:03;12.20;99.90
6764;DHT22;47432;48.760;9.178;2023-04-25T13:42:33;12.30;99.90
6764;DHT22;47432;48.760;9.178;2023-04-25T13:44:59;12.30;99.90
6764;DHT22;47432;48.760;9.178;2023-04-25T13:47:27;12.10;99.90
6764;DHT22;47432;48.760;9.178;2023-04-25T13:49:53;12.10;99.90
6764;DHT22;47432;48.760;9.178;2023-04-25T13:52:20;11.60;99.90
6764;DHT22;47432;48.760;9.178;2023-04-25T13:54:46;11.30;99.90
6764;DHT22;47432;48.760;9.178;2023-04-25T13:57:12;11.20;99.90
6764;DHT22;47432;48.760;9.178;2023-04-25T13:59:39;11.30;99.90
6764;DHT22;47432;48.760;9.178;2023-04-25T14:02:06;11.50;99.90
6764;DHT22;47432;48.760;9.178;2023-04-25T14:04:32;12.10;99.90
6764;DHT22;47432;48.760;9.178;2023-04-25T14:06:58;12.20;99.90
6764;DHT22;47432;48.760;9.178;2023-04-25T14:09:25;12.50;99.90
6764;DHT22;47432;48.760;9.178;2023-04-25T14:11:55;12.80;99.90
6764;DHT22;47432;48.760;9.178;2023-04-25T14:14:22;13.20;99.90
6764;DHT22;47432;48.760;9.178;2023-04-25T14:16:49;13.60;99.90
6764;DHT22;47432;48.760;9.178;2023-04-25T14:19:16;14.40;99.90
6764;DHT22;47432;48.760;9.178;2023-04-25T14:21:44;14.70;99.90
6764;DHT22;47432;48.760;9.178;2023-04-25T14:24:11;15.90;99.90
6764;DHT22;47432;48.760;9.178;2023-04-25T14:26:40;15.80;99.90
6764;DHT22;47432;48.760;9.178;2023-04-25T14:29:08;15.40;99.90
6764;DHT22;47432;48.760;9.178;2023-04-25T14:31:37;15.00;99.90
6764;DHT22;47432;48.760;9.178;2023-04-25T14:34:06;14.40;99.90
6764;DHT22;47432;48.760;9.178;2023-04-25T14:36:32;15.80;99.90
6764;DHT22;47432;48.760;9.178;2023-04-25T14:38:58;17.80;99.90
6764;DHT22;47432;48.760;9.178;2023-04-25T14:41:25;18.00;99.90
6764;DHT22;47432;48.760;9.178;2023-04-25T14:43:52;16.70;99.90
6764;DHT22;47432;48.760;9.178;2023-04-25T14:46:22;15.80;99.90
6764;DHT22;47432;48.760;9.178;2023-04-25T14:48:48;15.80;99.90
6764;DHT22;47432;48.760;9.178;2023-04-25T14:51:15;14.30;99.90
6764;DHT22;47432;48.760;9.178;2023-04-25T14:53:43;13.90;99.90
6764;DHT22;47432;48.760;9.178;2023-04-25T14:56:09;13.40;99.90
6764;DHT22;47432;48.760;9.178;2023-04-25T14:58:34;13.30;99.90
6764;DHT22;47432;48.760;9.178;2023-04-25T15:01:00;13.30;99.90
6764;DHT22;47432;48.760;9.178;2023-04-25T15:03:26;13.10;99.90
6764;DHT22;47432;48.760;9.178;2023-04-25T15:05:54;13.20;99.90
6764;DHT22;47432;48.760;9.178;2023-04-25T15:08:20;13.60;99.90
6764;DHT22;47432;48.760;9.178;2023-04-25T15:10:49;14.60;99.90
6764;DHT22;47432;48.760;9.178;2023-04-25T15:13:17;15.50;99.90
6764;DHT22;47432;48.760;9.178;2023-04-25T15:15:43;16.70;99.90
6764;DHT22;47432;48.760;9.178;2023-04-25T15:18:09;18.30;99.90
6764;DHT22;47432;48.760;9.178;2023-04-25T15:20:37;18.50;99.20
6764;DHT22;47432;48.760;9.178;2023-04-25T15:23:05;18.40;99.80
6764;DHT22;47432;48.760;9.178;2023-04-25T15:25:31;17.10;99.90
6764;DHT22;47432;48.760;9.178;2023-04-25T15:27:56;15.60;99.90
6764;DHT22;47432;48.760;9.178;2023-04-25T15:30:23;14.60;99.90
6764;DHT22;47432;48.760;9.178;2023-04-25T15:32:49;14.00;99.90
6764;DHT22;47432;48.760;9.178;2023-04-25T15:35:14;13.30;99.90
6764;DHT22;47432;48.760;9.178;2023-04-25T15:37:40;13.30;99.90
6764;DHT22;47432;48.760;9.178;2023-04-25T15:40:13;13.60;99.90
6764;DHT22;47432;48.760;9.178;2023-04-25T15:42:41;13.80;99.90
6764;DHT22;47432;48.760;9.178;2023-04-25T15:45:12;13.30;99.90
6764;DHT22;47432;48.760;9.178;2023-04-25T15:47:39;12.70;99.90
6764;DHT22;47432;48.760;9.178;2023-04-25T15:50:06;12.00;99.90
6764;DHT22;47432;48.760;9.178;2023-04-25T15:52:34;11.90;99.90
6764;DHT22;47432;48.760;9.178;2023-04-25T15:55:00;13.10;99.90
6764;DHT22;47432;48.760;9.178;2023-04-25T15:57:26;11.50;99.90
6764;DHT22;47432;48.760;9.178;2023-04-25T15:59:52;11.30;99.90
6764;DHT22;47432;48.760;9.178;2023-04-25T16:04:45;10.90;99.90
6764;DHT22;47432;48.760;9.178;2023-04-25T16:07:14;10.60;99.90
6764;DHT22;47432;48.760;9.178;2023-04-25T16:12:07;10.60;99.90
6764;DHT22;47432;48.760;9.178;2023-04-25T16:17:00;10.50;99.90
6764;DHT22;47432;48.760;9.178;2023-04-25T16:19:26;10.60;99.90
6764;DHT22;47432;48.760;9.178;2023-04-25T16:21:52;10.60;99.90
6764;DHT22;47432;48.760;9.178;2023-04-25T16:24:18;10.60;99.90
6764;DHT22;47432;48.760;9.178;2023-04-25T16:29:10;10.60;99.90
6764;DHT22;47432;48.760;9.178;2023-04-25T16:31:38;10.60;99.90
6764;DHT22;47432;48.760;9.178;2023-04-25T16:34:04;10.50;99.90
6764;DHT22;47432;48.760;9.178;2023-04-25T16:36:30;10.60;99.90
6764;DHT22;47432;48.760;9.178;2023-04-25T16:38:59;10.80;99.90
6764;DHT22;47432;48.760;9.178;2023-04-25T16:41:27;10.80;99.90
6764;DHT22;47432;48.760;9.178;2023-04-25T16:43:54;10.80;99.90
6764;DHT22;47432;48.760;9.178;2023-04-25T16:48:48;10.80;99.90
6764;DHT22;47432;48.760;9.178;2023-04-25T16:51:14;10.70;99.90
6764;DHT22;47432;48.760;9.178;2023-04-25T16:53:43;10.70;99.90
6764;DHT22;47432;48.760;9.178;2023-04-25T16:56:09;10.60;99.90
6764;DHT22;47432;48.760;9.178;2023-04-25T16:58:35;10.60;99.90
6764;DHT22;47432;48.760;9.178;2023-04-25T17:01:01;10.50;99.90
6764;DHT22;47432;48.760;9.178;2023-04-25T17:03:28;10.50;99.90
6764;DHT22;47432;48.760;9.178;2023-04-25T17:05:56;10.40;99.90